Time;durP1;ratioP1;P1;durP2;ratioP2;P2;SDS_P1;SDS_P2;PMS_P1;PMS_P2;Temp;Humidity;BMP_temperature;BMP_pressure;BME280_temperature;BME280_humidity;BME280_pressure;Samples;Min_cycle;Max_cycle;Signal;HPM_P1;HPM_P2
2021/07/03 00:04:52;;;;;;;39.63;24.92;;;;;;;13.22;76.68;100590.34;10313485;28;20253;-74
2021/07/03 00:09:55;;;;;;;41.78;24.70;;;;;;;13.29;76.97;100594.19;10308922;28;20715;-73
2021/07/03 00:15:00;;;;;;;40.75;25.02;;;;;;;13.39;76.83;100588.84;10309391;28;20246;-74
2021/07/03 00:20:05;;;;;;;41.22;25.35;;;;;;;13.35;77.06;100582.84;10312442;28;20272;-74
2021/07/03 00:25:09;;;;;;;41.97;26.33;;;;;;;13.35;77.01;100590.94;10311071;28;20262;-74
2021/07/03 00:30:14;;;;;;;45.33;24.42;;;;;;;13.23;77.17;100592.03;10309372;28;20611;-73
2021/07/03 00:35:17;;;;;;;39.78;25.17;;;;;;;13.15;77.33;100590.00;10310022;28;20234;-73
2021/07/03 00:40:20;;;;;;;40.30;25.77;;;;;;;13.10;77.38;100591.41;10311432;28;20230;-74
2021/07/03 00:45:26;;;;;;;42.90;24.70;;;;;;;13.05;77.23;100589.13;10324596;28;20235;-74
2021/07/03 00:50:30;;;;;;;39.58;23.55;;;;;;;13.00;77.31;100592.25;10326755;28;20349;-73
2021/07/03 00:55:33;;;;;;;39.47;23.98;;;;;;;12.90;77.12;100585.94;10305532;28;20238;-74
2021/07/03 01:00:38;;;;;;;45.08;24.42;;;;;;;12.89;77.31;100595.03;10324043;28;20235;-74
2021/07/03 01:05:43;;;;;;;39.10;24.80;;;;;;;12.89;77.41;100592.31;10307434;28;20813;-73
2021/07/03 01:10:47;;;;;;;46.25;24.63;;;;;;;12.85;77.41;100595.41;10321871;28;20900;-73
2021/07/03 01:15:58;;;;;;;41.80;24.85;;;;;;;12.90;77.43;100598.56;10322567;28;20237;-74
2021/07/03 01:21:05;;;;;;;37.30;23.75;;;;;;;12.87;77.33;100604.22;10323127;28;20227;-73
2021/07/03 01:26:10;;;;;;;42.67;25.10;;;;;;;12.79;77.31;100597.66;10321162;28;21168;-74
2021/07/03 01:31:15;;;;;;;41.78;25.40;;;;;;;12.64;77.77;100601.66;10311414;28;20305;-74
2021/07/03 01:36:18;;;;;;;41.20;24.65;;;;;;;12.59;78.07;100585.91;10309576;28;20265;-74
2021/07/03 01:41:24;;;;;;;40.15;24.75;;;;;;;12.60;77.99;100587.63;10306348;28;20242;-73
2021/07/03 01:46:31;;;;;;;44.53;23.98;;;;;;;12.54;77.71;100587.31;10304536;28;20243;-74
2021/07/03 01:51:36;;;;;;;38.95;22.73;;;;;;;12.49;77.62;100584.16;10306999;28;20639;-74
2021/07/03 01:56:42;;;;;;;41.88;23.60;;;;;;;12.41;77.63;100584.78;10303583;28;20816;-74
2021/07/03 02:01:50;;;;;;;37.67;22.90;;;;;;;12.21;77.73;100591.84;10309350;28;20243;-73
2021/07/03 02:06:57;;;;;;;37.92;22.88;;;;;;;12.14;78.40;100596.91;10306876;28;20237;-74
2021/07/03 02:12:06;;;;;;;34.65;21.17;;;;;;;12.05;78.71;100602.22;10321635;28;20253;-73
2021/07/03 02:17:29;;;;;;;40.17;24.05;;;;;;;12.09;78.67;100592.88;10304370;28;20292;-74
2021/07/03 02:22:37;;;;;;;37.63;23.48;;;;;;;12.12;78.28;100604.28;10322050;28;20235;-74
2021/07/03 02:27:42;;;;;;;42.15;23.73;;;;;;;12.08;78.19;100597.41;10305998;28;20235;-74
2021/07/03 02:32:50;;;;;;;39.17;21.75;;;;;;;12.05;78.12;100594.97;10325484;28;20231;-72
2021/07/03 02:37:54;;;;;;;39.85;22.45;;;;;;;12.03;78.06;100590.72;10328876;28;21478;-74
2021/07/03 02:43:00;;;;;;;34.65;22.35;;;;;;;11.94;77.90;100603.97;10327907;28;20715;-73
2021/07/03 02:48:03;;;;;;;40.97;22.40;;;;;;;11.91;78.00;100606.91;10313842;28;20243;-73
2021/07/03 02:53:07;;;;;;;36.10;21.35;;;;;;;11.82;77.88;100605.00;10310883;28;20265;-73
2021/07/03 02:58:12;;;;;;;40.03;22.98;;;;;;;11.84;77.86;100607.53;10315984;28;20289;-74
2021/07/03 03:03:15;;;;;;;35.90;21.42;;;;;;;11.78;77.85;100608.91;10327267;28;20326;-74
2021/07/03 03:08:18;;;;;;;42.95;23.35;;;;;;;11.81;78.12;100607.78;10312921;28;20262;-73
2021/07/03 03:13:23;;;;;;;37.85;21.73;;;;;;;11.82;78.38;100612.19;10328653;28;20322;-73
2021/07/03 03:18:27;;;;;;;39.03;22.38;;;;;;;11.82;78.49;100612.19;10311661;28;20230;-73
2021/07/03 03:23:31;;;;;;;36.35;23.30;;;;;;;11.81;78.33;100610.50;10312878;28;20243;-73
2021/07/03 03:28:37;;;;;;;34.38;21.30;;;;;;;11.77;78.28;100607.22;10312313;28;20298;-73
2021/07/03 03:33:40;;;;;;;33.97;22.00;;;;;;;11.71;77.90;100613.94;10314051;28;20242;-74
2021/07/03 03:38:50;;;;;;;38.97;21.83;;;;;;;11.66;78.11;100605.41;10314091;28;20246;-74
2021/07/03 03:43:57;;;;;;;40.10;22.42;;;;;;;11.65;78.14;100605.50;10329378;28;20638;-74
2021/07/03 03:49:04;;;;;;;38.72;22.77;;;;;;;11.69;78.08;100596.22;10328833;28;20245;-74
2021/07/03 03:54:07;;;;;;;34.80;21.90;;;;;;;11.73;77.93;100598.50;10314190;28;20238;-74
2021/07/03 03:59:13;;;;;;;42.53;23.20;;;;;;;11.80;77.94;100600.72;10313750;28;20369;-74
2021/07/03 04:04:17;;;;;;;37.33;22.13;;;;;;;11.83;77.68;100598.63;10309982;28;20235;-74
2021/07/03 04:09:20;;;;;;;39.42;22.90;;;;;;;11.84;77.70;100592.25;10313024;28;21428;-74
2021/07/03 04:14:24;;;;;;;40.63;22.25;;;;;;;11.85;77.60;100585.88;10312019;28;20243;-74
2021/07/03 04:19:27;;;;;;;37.10;22.33;;;;;;;11.90;77.49;100607.91;10310903;28;20238;-74
2021/07/03 04:24:30;;;;;;;37.28;21.85;;;;;;;12.02;77.43;100614.09;10313497;28;20235;-74
2021/07/03 04:29:35;;;;;;;37.58;20.98;;;;;;;12.19;77.52;100609.13;10310353;28;20246;-74
2021/07/03 04:34:38;;;;;;;38.35;21.55;;;;;;;12.34;77.19;100613.22;10311407;28;20893;-73
2021/07/03 04:39:41;;;;;;;37.42;21.23;;;;;;;12.32;76.79;100613.38;10314873;28;20231;-73
2021/07/03 04:44:45;;;;;;;35.78;20.98;;;;;;;12.35;76.93;100612.28;10329860;28;20597;-73
2021/07/03 04:49:48;;;;;;;37.67;21.17;;;;;;;12.46;76.85;100601.44;10325170;28;20808;-73
2021/07/03 04:54:51;;;;;;;37.97;21.98;;;;;;;12.64;76.72;100600.81;10338386;28;20243;-73
2021/07/03 04:59:55;;;;;;;36.40;21.52;;;;;;;12.79;76.68;100604.91;10313675;28;20791;-71
2021/07/03 05:04:58;;;;;;;35.15;20.05;;;;;;;12.89;76.28;100597.72;10329012;28;20261;-72
2021/07/03 05:10:01;;;;;;;37.83;21.30;;;;;;;13.01;76.20;100599.31;10329091;28;20262;-72
2021/07/03 05:15:06;;;;;;;33.38;20.10;;;;;;;13.10;75.88;100603.06;10326224;28;20916;-72
2021/07/03 05:20:11;;;;;;;32.83;20.63;;;;;;;13.25;75.82;100592.75;10329094;28;20226;-72
2021/07/03 05:25:15;;;;;;;30.45;19.50;;;;;;;13.33;75.32;100587.53;10311605;28;20628;-72
2021/07/03 05:30:19;;;;;;;33.40;20.23;;;;;;;13.45;75.05;100593.69;10308152;28;20246;-72
2021/07/03 05:35:22;;;;;;;34.58;19.52;;;;;;;13.57;74.99;100586.34;10311085;28;20246;-72
2021/07/03 05:40:25;;;;;;;30.65;19.42;;;;;;;13.71;74.42;100588.63;10312439;28;20238;-72
2021/07/03 05:45:30;;;;;;;38.45;20.92;;;;;;;13.80;74.01;100574.31;10310174;28;20235;-72
2021/07/03 05:50:33;;;;;;;33.40;18.92;;;;;;;13.92;74.38;100573.16;10309153;28;21209;-73
2021/07/03 05:55:36;;;;;;;30.10;18.45;;;;;;;14.06;73.42;100568.34;10309646;28;20234;-72
2021/07/03 06:00:40;;;;;;;33.80;20.50;;;;;;;14.25;73.55;100581.81;10309587;28;20599;-73
2021/07/03 06:05:45;;;;;;;29.40;18.58;;;;;;;14.43;73.11;100573.88;10313008;28;20238;-72
2021/07/03 06:10:47;;;;;;;30.70;18.73;;;;;;;14.60;72.63;100573.13;10317815;28;20253;-72
2021/07/03 06:15:52;;;;;;;30.00;20.45;;;;;;;14.88;72.61;100569.63;10317437;28;20235;-71
2021/07/03 06:20:56;;;;;;;33.63;20.05;;;;;;;15.14;72.80;100569.78;10317041;28;20234;-72
2021/07/03 06:26:00;;;;;;;31.95;20.50;;;;;;;15.33;71.20;100567.03;10318238;28;20233;-72
2021/07/03 06:31:04;;;;;;;30.95;21.08;;;;;;;15.45;70.04;100565.81;10335495;28;20241;-72
2021/07/03 06:36:07;;;;;;;31.52;18.88;;;;;;;15.93;70.08;100569.19;10334021;28;20238;-72
2021/07/03 06:41:10;;;;;;;30.75;20.00;;;;;;;16.34;69.58;100578.56;10315385;28;20238;-71
2021/07/03 06:46:14;;;;;;;30.27;19.02;;;;;;;16.41;66.91;100570.66;10357567;28;20261;-72
2021/07/03 06:51:17;;;;;;;32.00;19.70;;;;;;;16.50;67.79;100572.41;10356504;28;20337;-72
2021/07/03 06:56:20;;;;;;;26.67;18.88;;;;;;;16.87;67.64;100584.03;10354632;28;20242;-72
2021/07/03 07:01:25;;;;;;;32.38;19.05;;;;;;;17.29;66.27;100584.09;10353234;28;20612;-72
2021/07/03 07:06:28;;;;;;;30.50;18.08;;;;;;;17.47;64.45;100587.56;10352427;28;20613;-73
2021/07/03 07:11:31;;;;;;;31.10;18.75;;;;;;;17.42;63.89;100595.34;10351166;28;20238;-73
2021/07/03 07:16:35;;;;;;;29.58;19.45;;;;;;;17.72;63.67;100595.78;10353021;28;20250;-75
2021/07/03 07:21:38;;;;;;;29.08;16.45;;;;;;;18.24;62.51;100600.97;10352537;28;20280;-76
2021/07/03 07:26:41;;;;;;;25.65;17.35;;;;;;;18.48;60.52;100588.38;10351140;28;20245;-74
2021/07/03 07:31:47;;;;;;;26.83;17.65;;;;;;;18.76;60.11;100586.16;10353510;28;20884;-74
2021/07/03 07:36:50;;;;;;;21.52;15.27;;;;;;;19.09;59.89;100586.06;10352771;28;20299;-74
2021/07/03 07:41:53;;;;;;;24.48;17.05;;;;;;;19.52;59.12;100572.97;10350962;28;20241;-74
2021/07/03 07:46:57;;;;;;;26.70;18.35;;;;;;;19.45;57.65;100576.41;10351068;28;20713;-74
2021/07/03 07:52:01;;;;;;;22.88;17.13;;;;;;;19.93;57.72;100573.59;10353219;28;20595;-74
2021/07/03 07:57:04;;;;;;;26.90;17.42;;;;;;;21.01;56.02;100567.84;10351220;28;20280;-74
2021/07/03 08:02:09;;;;;;;22.35;16.05;;;;;;;21.28;52.80;100561.91;10345199;28;20237;-74
2021/07/03 08:07:12;;;;;;;25.60;17.60;;;;;;;21.05;53.90;100554.69;10353651;28;20238;-75
2021/07/03 08:12:15;;;;;;;23.23;16.63;;;;;;;20.50;53.44;100551.31;10348363;28;20235;-75
2021/07/03 08:17:19;;;;;;;23.30;16.65;;;;;;;21.47;51.85;100544.06;10325993;28;20237;-75
2021/07/03 08:22:22;;;;;;;25.73;17.73;;;;;;;21.32;51.61;100542.22;10310756;28;20231;-74
2021/07/03 08:27:25;;;;;;;21.55;16.38;;;;;;;21.93;51.25;100550.09;10308423;28;20235;-75
2021/07/03 08:32:30;;;;;;;28.70;18.02;;;;;;;22.02;50.69;100548.06;10342733;28;20694;-73
2021/07/03 08:37:33;;;;;;;25.50;17.77;;;;;;;22.64;48.84;100541.03;10353990;28;20238;-73
2021/07/03 08:42:36;;;;;;;24.30;17.10;;;;;;;22.47;48.85;100546.81;10352949;28;20731;-74
2021/07/03 08:47:43;;;;;;;24.77;16.65;;;;;;;22.54;48.75;100534.03;10350105;28;20333;-73
2021/07/03 08:52:46;;;;;;;25.10;15.32;;;;;;;22.80;50.00;100537.16;10350988;28;20236;-74
2021/07/03 08:57:51;;;;;;;22.95;14.88;;;;;;;22.61;49.36;100527.75;10349426;28;20226;-74
2021/07/03 09:02:55;;;;;;;24.70;16.92;;;;;;;22.74;47.56;100527.84;10349652;28;20865;-74
2021/07/03 09:08:00;;;;;;;22.42;14.60;;;;;;;23.63;44.82;100524.25;10347922;28;20241;-71
2021/07/03 09:13:04;;;;;;;19.40;13.82;;;;;;;23.53;45.34;100521.03;10348630;28;20238;-72
2021/07/03 09:18:10;;;;;;;19.73;13.18;;;;;;;24.44;44.99;100499.47;10349025;28;20329;-71
2021/07/03 09:23:16;;;;;;;17.23;11.25;;;;;;;24.41;44.84;100497.16;10313455;28;20243;-71
2021/07/03 09:28:20;;;;;;;22.75;14.52;;;;;;;25.57;42.71;100509.25;10307607;28;20645;-71
2021/07/03 09:33:26;;;;;;;21.15;14.45;;;;;;;25.42;41.79;100493.03;10307600;28;20234;-74
2021/07/03 09:38:31;;;;;;;19.77;14.25;;;;;;;25.31;42.08;100490.97;10303259;28;20805;-70
2021/07/03 09:43:34;;;;;;;25.98;16.73;;;;;;;24.63;43.59;100488.63;10306815;28;20238;-72
2021/07/03 09:48:49;;;;;;;21.55;15.55;;;;;;;24.90;44.33;100484.78;10306306;28;20246;-71
2021/07/03 09:53:54;;;;;;;19.00;13.52;;;;;;;23.63;46.20;100488.59;10305456;28;20280;-74
2021/07/03 09:58:58;;;;;;;21.33;14.75;;;;;;;23.23;46.78;100495.84;10303648;28;20497;-71
2021/07/03 10:04:04;;;;;;;19.50;15.40;;;;;;;23.52;47.35;100486.47;10324772;28;20613;-72
2021/07/03 10:09:10;;;;;;;20.15;14.98;;;;;;;24.25;45.26;100484.66;10316725;28;20235;-72
2021/07/03 10:14:14;;;;;;;19.77;15.13;;;;;;;24.85;44.33;100470.84;10307726;28;20684;-72
2021/07/03 10:19:19;;;;;;;20.73;14.18;;;;;;;24.51;43.39;100470.09;10324793;28;20231;-72
2021/07/03 10:24:25;;;;;;;19.58;13.93;;;;;;;25.19;42.34;100474.31;10325262;28;20238;-72
2021/07/03 10:29:28;;;;;;;15.35;11.60;;;;;;;23.99;44.49;100470.94;10322365;28;21527;-72
2021/07/03 10:34:35;;;;;;;14.80;11.00;;;;;;;24.98;42.43;100464.44;10328473;28;20234;-72
2021/07/03 10:39:45;;;;;;;14.70;10.82;;;;;;;26.00;38.97;100461.75;10322266;28;20235;-72
2021/07/03 10:44:48;;;;;;;15.43;10.93;;;;;;;26.60;37.32;100458.47;10324766;28;20235;-72
2021/07/03 10:49:53;;;;;;;12.45;10.20;;;;;;;26.05;39.85;100445.41;10326089;28;20235;-72
2021/07/03 10:55:03;;;;;;;14.40;9.95;;;;;;;26.43;39.13;100456.31;10342141;28;20281;-72
2021/07/03 11:00:11;;;;;;;12.68;9.57;;;;;;;25.91;41.12;100449.34;10353590;28;20234;-72
2021/07/03 11:05:16;;;;;;;13.73;11.25;;;;;;;25.05;40.93;100451.56;10354847;28;20613;-72
2021/07/03 11:10:27;;;;;;;15.25;11.40;;;;;;;25.26;40.50;100450.41;10355753;28;20238;-72
2021/07/03 11:15:31;;;;;;;15.57;12.60;;;;;;;25.68;39.17;100442.56;10352970;28;20242;-73
2021/07/03 11:20:40;;;;;;;12.98;10.68;;;;;;;26.20;38.76;100434.06;10351856;28;20249;-73
2021/07/03 11:25:45;;;;;;;10.07;8.52;;;;;;;25.90;38.95;100433.91;10346432;28;20234;-74
2021/07/03 11:30:53;;;;;;;11.75;8.70;;;;;;;27.49;35.45;100428.53;10345759;28;20235;-74
2021/07/03 11:35:58;;;;;;;12.45;9.50;;;;;;;25.82;37.46;100418.53;10328652;28;20284;-74
2021/07/03 11:41:03;;;;;;;12.27;8.65;;;;;;;27.32;36.13;100411.78;10310736;28;20948;-74
2021/07/03 11:46:06;;;;;;;11.05;9.35;;;;;;;26.17;38.42;100402.34;10309633;28;20246;-74
2021/07/03 11:51:10;;;;;;;11.88;9.30;;;;;;;25.77;37.95;100402.69;10309855;28;20246;-74
2021/07/03 11:56:17;;;;;;;10.73;8.38;;;;;;;26.32;38.46;100390.97;10310705;28;21385;-74
2021/07/03 12:01:21;;;;;;;10.23;8.32;;;;;;;26.88;35.30;100384.41;10310071;28;20235;-74
2021/07/03 12:06:27;;;;;;;8.98;8.02;;;;;;;25.87;38.04;100380.19;10310533;28;20247;-74
2021/07/03 12:11:29;;;;;;;7.57;6.78;;;;;;;26.86;34.56;100377.44;10309323;28;20242;-73
2021/07/03 12:16:32;;;;;;;8.55;7.60;;;;;;;26.88;35.14;100370.63;10310372;28;20940;-73
2021/07/03 12:21:37;;;;;;;7.38;6.57;;;;;;;26.67;34.67;100368.34;10323901;28;20247;-73
2021/07/03 12:26:41;;;;;;;7.70;6.80;;;;;;;27.23;32.94;100358.03;10310115;28;20243;-73
2021/07/03 12:31:47;;;;;;;9.07;7.15;;;;;;;26.72;33.75;100351.94;10311034;28;20239;-73
2021/07/03 12:36:52;;;;;;;6.57;5.90;;;;;;;27.09;32.63;100357.41;10310917;28;20250;-73
2021/07/03 12:41:57;;;;;;;7.32;6.07;;;;;;;26.59;35.30;100346.59;10309429;28;20238;-72
2021/07/03 12:47:01;;;;;;;7.40;6.35;;;;;;;27.70;31.53;100334.19;10319594;28;20242;-73
2021/07/03 12:52:08;;;;;;;7.40;6.68;;;;;;;29.38;30.88;100330.53;10332821;28;20657;-73
2021/07/03 12:57:12;;;;;;;8.88;6.80;;;;;;;28.06;32.32;100332.28;10305317;28;21399;-73
2021/07/03 13:02:16;;;;;;;8.05;6.30;;;;;;;28.97;32.72;100320.63;10309346;28;20223;-73
2021/07/03 13:07:21;;;;;;;7.47;6.63;;;;;;;29.99;31.82;100319.59;10307506;28;20238;-73
2021/07/03 13:12:24;;;;;;;8.98;6.97;;;;;;;29.46;31.58;100307.97;10308849;28;20601;-73
2021/07/03 13:17:29;;;;;;;8.90;6.03;;;;;;;29.01;31.41;100310.75;10308176;28;20326;-73
2021/07/03 13:22:33;;;;;;;7.70;5.88;;;;;;;30.35;31.74;100304.31;10309146;28;20246;-73
2021/07/03 13:27:36;;;;;;;6.10;5.50;;;;;;;30.46;30.03;100302.50;10307221;28;20238;-74
2021/07/03 13:32:39;;;;;;;6.78;6.00;;;;;;;29.45;29.98;100295.19;10310806;28;20242;-74
2021/07/03 13:37:45;;;;;;;6.30;5.10;;;;;;;30.43;29.99;100298.31;10308034;28;20716;-74
2021/07/03 13:42:48;;;;;;;6.30;5.03;;;;;;;31.61;27.15;100291.16;10309951;28;20239;-75
2021/07/03 13:47:51;;;;;;;4.82;4.32;;;;;;;32.16;27.68;100277.91;10307693;28;20234;-74
2021/07/03 13:52:55;;;;;;;7.13;4.00;;;;;;;29.77;28.59;100283.56;10309275;28;20243;-74
2021/07/03 13:57:59;;;;;;;7.40;4.10;;;;;;;30.41;28.68;100285.81;10307129;28;20707;-74
2021/07/03 14:03:02;;;;;;;5.28;4.78;;;;;;;29.23;30.56;100280.47;10306939;28;20239;-74
2021/07/03 14:08:07;;;;;;;5.40;4.90;;;;;;;28.90;30.56;100284.84;10325674;28;20235;-73
2021/07/03 14:13:10;;;;;;;5.07;4.45;;;;;;;29.13;30.86;100278.38;10346607;28;20249;-73
2021/07/03 14:18:13;;;;;;;5.00;4.43;;;;;;;28.94;29.51;100277.72;10327388;28;20226;-73
2021/07/03 14:23:17;;;;;;;5.10;4.30;;;;;;;29.68;30.07;100276.78;10318258;28;20704;-73
2021/07/03 14:28:20;;;;;;;5.65;4.82;;;;;;;30.34;30.31;100276.88;10311425;28;20235;-73
2021/07/03 14:33:24;;;;;;;6.50;5.38;;;;;;;28.03;32.22;100272.03;10316336;28;20256;-73
2021/07/03 14:38:29;;;;;;;6.20;5.15;;;;;;;28.79;30.25;100272.75;10313263;28;20258;-74
2021/07/03 14:43:31;;;;;;;5.22;4.50;;;;;;;27.65;32.61;100267.00;10314840;28;20237;-74
2021/07/03 14:48:35;;;;;;;6.00;4.85;;;;;;;27.34;33.18;100257.94;10314956;28;20239;-74
2021/07/03 14:53:40;;;;;;;6.32;4.70;;;;;;;27.04;33.28;100250.63;10349774;28;20242;-73
2021/07/03 14:58:43;;;;;;;6.07;4.85;;;;;;;27.23;32.35;100242.25;10355260;28;20628;-73
2021/07/03 15:03:46;;;;;;;5.45;4.45;;;;;;;30.35;29.43;100239.75;10354456;28;20253;-73
2021/07/03 15:08:50;;;;;;;5.07;4.57;;;;;;;30.70;29.96;100236.56;10351514;28;20246;-73
2021/07/03 15:13:53;;;;;;;5.25;4.75;;;;;;;31.38;29.04;100231.34;10351213;28;20242;-73
2021/07/03 15:18:56;;;;;;;6.22;5.15;;;;;;;29.09;32.49;100236.53;10353779;28;20234;-73
2021/07/03 15:24:01;;;;;;;5.57;5.07;;;;;;;28.77;33.50;100230.72;10350936;28;20619;-73
2021/07/03 15:29:04;;;;;;;5.30;4.80;;;;;;;28.92;32.06;100214.38;10370435;28;20230;-73
2021/07/03 15:34:08;;;;;;;6.32;5.28;;;;;;;31.36;28.83;100214.13;10354847;28;20624;-73
2021/07/03 15:39:15;;;;;;;6.00;5.07;;;;;;;31.02;28.29;100216.31;10353213;28;21596;-73
2021/07/03 15:44:17;;;;;;;5.95;4.85;;;;;;;28.45;32.15;100220.16;10353619;28;20272;-73
2021/07/03 15:49:20;;;;;;;5.80;5.20;;;;;;;27.69;33.21;100221.28;10346076;28;20234;-73
2021/07/03 15:54:25;;;;;;;7.28;4.95;;;;;;;27.11;32.99;100211.91;10352945;28;20617;-73
2021/07/03 15:59:28;;;;;;;5.88;5.15;;;;;;;27.97;34.19;100204.81;10356354;28;20727;-73
2021/07/03 16:04:31;;;;;;;5.40;4.90;;;;;;;29.45;33.40;100203.06;10338184;28;20239;-73
2021/07/03 16:09:35;;;;;;;5.82;5.10;;;;;;;28.73;32.53;100196.38;10337135;28;21394;-73
2021/07/03 16:14:38;;;;;;;6.25;5.07;;;;;;;27.03;34.65;100201.22;10317066;28;20764;-73
2021/07/03 16:19:42;;;;;;;5.53;5.03;;;;;;;27.75;35.62;100195.47;10309181;28;20241;-73
2021/07/03 16:24:46;;;;;;;5.38;4.88;;;;;;;29.87;33.02;100185.97;10310661;28;20249;-75
2021/07/03 16:29:49;;;;;;;6.03;5.18;;;;;;;32.44;29.01;100182.97;10310498;28;20720;-73
2021/07/03 16:34:52;;;;;;;5.70;5.15;;;;;;;34.82;24.97;100171.78;10333602;28;20323;-73
2021/07/03 16:39:56;;;;;;;5.80;5.20;;;;;;;36.76;23.97;100175.06;10322940;28;20237;-73
2021/07/03 16:44:59;;;;;;;5.15;4.65;;;;;;;39.17;20.17;100165.19;10352497;28;20234;-73
2021/07/03 16:50:02;;;;;;;4.90;4.40;;;;;;;40.09;20.34;100161.72;10353075;28;20229;-73
2021/07/03 16:55:08;;;;;;;5.35;4.65;;;;;;;42.08;18.71;100148.34;10352307;28;20241;-74
2021/07/03 17:00:11;;;;;;;5.07;4.30;;;;;;;41.15;18.52;100148.13;10344934;28;20237;-73
2021/07/03 17:05:14;;;;;;;4.70;4.30;;;;;;;41.32;18.70;100133.16;10343697;28;20285;-74
2021/07/03 17:10:19;;;;;;;5.60;5.00;;;;;;;40.03;19.10;100141.38;10352974;28;20320;-74
2021/07/03 17:15:22;;;;;;;4.97;4.45;;;;;;;38.50;19.80;100149.16;10342606;28;20229;-74
2021/07/03 17:20:25;;;;;;;4.68;4.15;;;;;;;38.38;19.83;100132.09;10349529;28;20233;-74
2021/07/03 17:25:29;;;;;;;4.03;3.70;;;;;;;35.86;24.22;100129.38;10348545;28;22335;-74
2021/07/03 17:30:32;;;;;;;4.43;3.88;;;;;;;34.56;26.47;100132.13;10349984;28;20611;-74
2021/07/03 17:35:35;;;;;;;4.93;4.45;;;;;;;30.79;30.16;100137.13;10320454;28;20615;-73
2021/07/03 17:40:40;;;;;;;4.95;4.45;;;;;;;28.27;33.50;100134.72;10307946;28;20241;-73
2021/07/03 17:45:43;;;;;;;6.05;4.72;;;;;;;27.06;37.92;100132.69;10308419;28;20245;-73
2021/07/03 17:50:46;;;;;;;5.20;4.70;;;;;;;27.94;35.79;100121.66;10308212;28;20308;-73
2021/07/03 17:55:50;;;;;;;5.18;4.70;;;;;;;28.07;35.94;100132.44;10325869;28;20234;-73
2021/07/03 18:00:54;;;;;;;5.22;4.72;;;;;;;27.07;37.46;100130.75;10324983;28;20616;-73
2021/07/03 18:05:56;;;;;;;5.40;4.90;;;;;;;26.89;38.87;100128.97;10322476;28;21636;-73
2021/07/03 18:11:01;;;;;;;5.22;4.72;;;;;;;26.60;39.11;100122.44;10308061;28;20262;-73
2021/07/03 18:16:04;;;;;;;5.93;4.68;;;;;;;26.00;39.27;100117.78;10312221;28;20242;-73
2021/07/03 18:21:07;;;;;;;5.10;4.60;;;;;;;25.48;40.00;100111.84;10267164;28;20243;-73
2021/07/03 18:26:12;;;;;;;5.65;4.65;;;;;;;24.97;40.49;100117.44;10302244;28;20238;-73
2021/07/03 18:31:14;;;;;;;6.10;5.50;;;;;;;24.49;41.63;100118.06;10332814;28;20621;-72
2021/07/03 18:36:19;;;;;;;5.55;5.05;;;;;;;24.10;42.18;100116.38;10345536;28;20376;-72
2021/07/03 18:41:24;;;;;;;5.80;4.90;;;;;;;23.96;43.98;100114.78;10315332;28;20238;-73
2021/07/03 18:46:27;;;;;;;5.95;4.70;;;;;;;23.76;44.79;100117.59;10311809;28;20231;-73
2021/07/03 18:51:30;;;;;;;5.60;5.10;;;;;;;23.63;43.46;100110.25;10327543;28;20800;-73
2021/07/03 18:56:34;;;;;;;7.28;6.47;;;;;;;23.55;42.91;100103.09;10325350;28;20266;-73
2021/07/03 19:01:38;;;;;;;7.97;6.40;;;;;;;23.52;41.55;100103.53;10324333;28;20222;-72
2021/07/03 19:06:40;;;;;;;8.77;6.05;;;;;;;23.51;41.62;100107.34;10328348;28;20235;-73
2021/07/03 19:11:45;;;;;;;5.93;5.32;;;;;;;23.44;42.28;100104.63;10347433;28;20662;-73
2021/07/03 19:16:48;;;;;;;4.95;4.43;;;;;;;23.16;43.68;100104.91;10353591;28;20241;-73
2021/07/03 19:21:51;;;;;;;5.80;4.90;;;;;;;22.89;43.89;100108.72;10338408;28;20618;-73
2021/07/03 19:26:56;;;;;;;5.80;5.30;;;;;;;22.58;43.82;100104.72;10313940;28;20767;-72
2021/07/03 19:31:58;;;;;;;7.35;5.43;;;;;;;22.19;44.09;100103.59;10315076;28;20252;-72
2021/07/03 19:37:01;;;;;;;7.45;5.88;;;;;;;22.14;44.75;100111.59;10314441;28;20242;-72
2021/07/03 19:42:06;;;;;;;7.05;5.43;;;;;;;22.19;44.82;100110.94;10313594;28;20249;-73
2021/07/03 19:47:09;;;;;;;6.82;5.20;;;;;;;22.19;45.56;100111.81;10312154;28;20235;-73
2021/07/03 19:52:13;;;;;;;7.40;5.53;;;;;;;22.05;46.55;100121.88;10310866;28;20231;-73
2021/07/03 19:57:17;;;;;;;6.57;5.82;;;;;;;21.87;46.23;100116.13;10309261;28;20246;-73
2021/07/03 20:02:21;;;;;;;6.28;5.40;;;;;;;21.75;46.41;100124.09;10312141;28;20234;-72
2021/07/03 20:07:24;;;;;;;5.75;5.15;;;;;;;21.61;47.19;100123.16;10312096;28;21797;-73
2021/07/03 20:12:28;;;;;;;7.05;5.30;;;;;;;21.51;47.85;100119.94;10312967;28;20242;-74
2021/07/03 20:17:32;;;;;;;5.60;5.00;;;;;;;21.35;47.89;100118.38;10310047;28;20234;-74
2021/07/03 20:22:36;;;;;;;7.05;5.30;;;;;;;21.23;48.90;100115.38;10311354;28;20246;-73
2021/07/03 20:27:41;;;;;;;6.95;6.00;;;;;;;21.19;49.80;100116.81;10309251;28;21000;-74
2021/07/03 20:32:45;;;;;;;7.55;6.40;;;;;;;21.12;50.43;100113.22;10310817;28;20248;-74
2021/07/03 20:37:48;;;;;;;7.43;6.68;;;;;;;21.10;50.57;100122.66;10310077;28;20235;-74
2021/07/03 20:42:54;;;;;;;8.30;6.30;;;;;;;21.02;50.91;100120.88;10309868;28;21891;-74
2021/07/03 20:47:57;;;;;;;9.15;6.13;;;;;;;21.12;50.67;100112.38;10313385;28;20242;-74
2021/07/03 20:53:00;;;;;;;6.93;6.22;;;;;;;20.97;51.13;100117.91;10309099;28;20242;-74
2021/07/03 20:58:05;;;;;;;8.40;6.68;;;;;;;20.78;51.70;100109.34;10307764;28;20223;-73
2021/07/03 21:03:08;;;;;;;8.98;6.93;;;;;;;20.69;52.30;100121.47;10325083;28;20238;-74
2021/07/03 21:08:11;;;;;;;8.18;7.22;;;;;;;20.62;52.79;100117.00;10340749;28;20233;-74
2021/07/03 21:13:15;;;;;;;10.23;7.85;;;;;;;20.47;52.94;100115.19;10350306;28;20242;-76
2021/07/03 21:18:18;;;;;;;8.98;7.60;;;;;;;20.40;53.07;100111.53;10347830;28;20245;-76
2021/07/03 21:23:21;;;;;;;10.52;7.28;;;;;;;20.34;53.83;100123.25;10311047;28;20235;-76
2021/07/03 21:28:25;;;;;;;8.63;7.22;;;;;;;20.18;54.50;100116.13;10308470;28;20227;-77
2021/07/03 21:33:28;;;;;;;11.05;7.75;;;;;;;20.04;55.30;100112.41;10308316;28;20723;-76
2021/07/03 21:38:31;;;;;;;9.55;7.45;;;;;;;19.98;55.46;100123.25;10306720;28;20238;-77
2021/07/03 21:43:36;;;;;;;9.18;7.70;;;;;;;19.92;55.51;100116.69;10307472;28;20227;-76
2021/07/03 21:48:39;;;;;;;11.32;8.85;;;;;;;19.83;55.34;100115.13;10308277;28;20723;-76
2021/07/03 21:53:41;;;;;;;10.25;8.30;;;;;;;19.84;55.96;100123.09;10307719;28;20242;-76
2021/07/03 21:58:46;;;;;;;9.10;8.10;;;;;;;19.79;56.05;100117.38;10309335;28;20238;-77
2021/07/03 22:03:48;;;;;;;10.38;7.80;;;;;;;19.94;55.32;100120.06;10309874;28;20243;-76
2021/07/03 22:15:40;;;;;;;8.40;7.22;;;;;;;19.94;55.16;100113.75;10309190;28;20246;-77
2021/07/03 22:20:45;;;;;;;11.95;8.80;;;;;;;19.87;55.27;100113.69;10309133;28;20235;-76
2021/07/03 22:25:48;;;;;;;10.10;8.90;;;;;;;19.90;55.37;100113.31;10309089;28;20731;-76
2021/07/03 22:30:52;;;;;;;12.77;9.32;;;;;;;19.98;55.48;100118.63;10310611;28;20227;-77
2021/07/03 22:35:55;;;;;;;11.45;9.52;;;;;;;19.66;56.85;100114.47;10305311;28;20273;-76
2021/07/03 22:40:58;;;;;;;9.45;8.43;;;;;;;19.30;57.94;100115.22;10307240;28;20238;-76
2021/07/03 22:46:03;;;;;;;10.55;9.15;;;;;;;19.10;57.63;100117.66;10306521;28;20313;-77
2021/07/03 22:51:06;;;;;;;14.23;9.23;;;;;;;19.08;57.34;100099.81;10314833;28;20625;-76
2021/07/03 22:56:09;;;;;;;14.43;9.48;;;;;;;19.34;55.55;100104.81;10314815;28;20975;-77
2021/07/03 23:01:13;;;;;;;14.60;9.98;;;;;;;19.51;54.92;100100.84;10317407;28;20317;-77
2021/07/03 23:06:16;;;;;;;14.18;10.07;;;;;;;19.47;55.59;100104.97;10311857;28;20239;-77
2021/07/03 23:11:19;;;;;;;12.70;10.55;;;;;;;19.44;56.55;100100.78;10313551;28;20262;-76